sensor_id;sensor_type;location;lat;lon;timestamp;P1;durP1;ratioP1;P2;durP2;ratioP2
11151;SDS011;5630;49.342;10.802;2024-02-21T00:01:35;16.37;;;5.43;;
11151;SDS011;5630;49.342;10.802;2024-02-21T00:04:00;14.80;;;5.43;;
11151;SDS011;5630;49.342;10.802;2024-02-21T00:06:26;15.20;;;4.83;;
11151;SDS011;5630;49.342;10.802;2024-02-21T00:08:51;19.23;;;5.37;;
11151;SDS011;5630;49.342;10.802;2024-02-21T00:11:17;18.07;;;5.83;;
11151;SDS011;5630;49.342;10.802;2024-02-21T00:13:43;12.87;;;4.80;;
11151;SDS011;5630;49.342;10.802;2024-02-21T00:16:08;16.43;;;5.23;;
11151;SDS011;5630;49.342;10.802;2024-02-21T00:18:35;16.20;;;5.20;;
11151;SDS011;5630;49.342;10.802;2024-02-21T00:21:01;16.67;;;5.57;;
11151;SDS011;5630;49.342;10.802;2024-02-21T00:23:27;12.97;;;5.07;;
11151;SDS011;5630;49.342;10.802;2024-02-21T00:25:53;18.53;;;5.43;;
11151;SDS011;5630;49.342;10.802;2024-02-21T00:28:19;15.27;;;5.13;;
11151;SDS011;5630;49.342;10.802;2024-02-21T00:30:44;12.57;;;5.73;;
11151;SDS011;5630;49.342;10.802;2024-02-21T00:33:12;16.47;;;5.47;;
11151;SDS011;5630;49.342;10.802;2024-02-21T00:35:38;11.87;;;4.83;;
11151;SDS011;5630;49.342;10.802;2024-02-21T00:38:04;16.80;;;5.10;;
11151;SDS011;5630;49.342;10.802;2024-02-21T00:40:29;14.57;;;5.13;;
11151;SDS011;5630;49.342;10.802;2024-02-21T00:42:55;11.07;;;5.23;;
11151;SDS011;5630;49.342;10.802;2024-02-21T00:45:21;12.33;;;4.80;;
11151;SDS011;5630;49.342;10.802;2024-02-21T00:47:46;15.97;;;5.13;;
11151;SDS011;5630;49.342;10.802;2024-02-21T00:50:12;15.00;;;5.57;;
11151;SDS011;5630;49.342;10.802;2024-02-21T00:52:38;13.23;;;4.73;;
11151;SDS011;5630;49.342;10.802;2024-02-21T00:55:04;15.97;;;5.23;;
11151;SDS011;5630;49.342;10.802;2024-02-21T00:57:30;19.50;;;4.90;;
11151;SDS011;5630;49.342;10.802;2024-02-21T00:59:55;11.47;;;4.53;;
11151;SDS011;5630;49.342;10.802;2024-02-21T01:02:21;15.03;;;4.97;;
11151;SDS011;5630;49.342;10.802;2024-02-21T01:04:46;15.47;;;5.57;;
11151;SDS011;5630;49.342;10.802;2024-02-21T01:07:12;13.97;;;5.03;;
11151;SDS011;5630;49.342;10.802;2024-02-21T01:09:37;17.70;;;4.93;;
11151;SDS011;5630;49.342;10.802;2024-02-21T01:12:03;13.80;;;5.00;;
11151;SDS011;5630;49.342;10.802;2024-02-21T01:14:29;17.70;;;4.93;;
11151;SDS011;5630;49.342;10.802;2024-02-21T01:16:54;14.23;;;5.40;;
11151;SDS011;5630;49.342;10.802;2024-02-21T01:19:20;17.07;;;5.47;;
11151;SDS011;5630;49.342;10.802;2024-02-21T01:21:45;12.90;;;4.53;;
11151;SDS011;5630;49.342;10.802;2024-02-21T01:24:11;18.27;;;5.30;;
11151;SDS011;5630;49.342;10.802;2024-02-21T01:26:37;15.10;;;5.50;;
11151;SDS011;5630;49.342;10.802;2024-02-21T01:29:02;15.33;;;5.00;;
11151;SDS011;5630;49.342;10.802;2024-02-21T01:31:28;14.03;;;4.73;;
11151;SDS011;5630;49.342;10.802;2024-02-21T01:33:53;11.43;;;5.40;;
11151;SDS011;5630;49.342;10.802;2024-02-21T01:36:19;14.60;;;4.67;;
11151;SDS011;5630;49.342;10.802;2024-02-21T01:38:45;19.83;;;4.90;;
11151;SDS011;5630;49.342;10.802;2024-02-21T01:41:10;14.77;;;5.27;;
11151;SDS011;5630;49.342;10.802;2024-02-21T01:43:36;17.07;;;5.50;;
11151;SDS011;5630;49.342;10.802;2024-02-21T01:46:02;14.60;;;4.73;;
11151;SDS011;5630;49.342;10.802;2024-02-21T01:48:27;16.53;;;5.73;;
11151;SDS011;5630;49.342;10.802;2024-02-21T01:50:53;13.83;;;5.00;;
11151;SDS011;5630;49.342;10.802;2024-02-21T01:53:20;12.40;;;4.93;;
11151;SDS011;5630;49.342;10.802;2024-02-21T01:55:48;12.30;;;4.20;;
11151;SDS011;5630;49.342;10.802;2024-02-21T01:58:17;19.40;;;5.23;;
11151;SDS011;5630;49.342;10.802;2024-02-21T02:00:44;12.57;;;5.27;;
11151;SDS011;5630;49.342;10.802;2024-02-21T02:03:10;15.70;;;6.03;;
11151;SDS011;5630;49.342;10.802;2024-02-21T02:05:45;15.90;;;4.63;;
11151;SDS011;5630;49.342;10.802;2024-02-21T02:08:13;15.70;;;4.90;;
11151;SDS011;5630;49.342;10.802;2024-02-21T02:10:43;17.97;;;4.73;;
11151;SDS011;5630;49.342;10.802;2024-02-21T02:13:09;17.87;;;4.90;;
11151;SDS011;5630;49.342;10.802;2024-02-21T02:15:42;12.47;;;4.57;;
11151;SDS011;5630;49.342;10.802;2024-02-21T02:18:07;14.33;;;4.40;;
11151;SDS011;5630;49.342;10.802;2024-02-21T02:20:33;15.80;;;5.00;;
11151;SDS011;5630;49.342;10.802;2024-02-21T02:23:00;16.90;;;4.90;;
11151;SDS011;5630;49.342;10.802;2024-02-21T02:25:35;14.03;;;4.77;;
11151;SDS011;5630;49.342;10.802;2024-02-21T02:28:02;18.37;;;4.27;;
11151;SDS011;5630;49.342;10.802;2024-02-21T02:30:32;16.67;;;4.57;;
11151;SDS011;5630;49.342;10.802;2024-02-21T02:32:59;11.13;;;4.50;;
11151;SDS011;5630;49.342;10.802;2024-02-21T02:35:24;12.40;;;4.33;;
11151;SDS011;5630;49.342;10.802;2024-02-21T02:37:50;13.50;;;4.37;;
11151;SDS011;5630;49.342;10.802;2024-02-21T02:40:16;16.00;;;4.50;;
11151;SDS011;5630;49.342;10.802;2024-02-21T02:42:42;20.27;;;5.07;;
11151;SDS011;5630;49.342;10.802;2024-02-21T02:45:08;14.07;;;5.03;;
11151;SDS011;5630;49.342;10.802;2024-02-21T02:47:34;13.97;;;4.47;;
11151;SDS011;5630;49.342;10.802;2024-02-21T02:49:59;14.77;;;4.37;;
11151;SDS011;5630;49.342;10.802;2024-02-21T02:52:25;14.87;;;4.80;;
11151;SDS011;5630;49.342;10.802;2024-02-21T02:54:51;15.67;;;4.87;;
11151;SDS011;5630;49.342;10.802;2024-02-21T02:57:17;14.40;;;4.67;;
11151;SDS011;5630;49.342;10.802;2024-02-21T02:59:52;14.77;;;4.37;;
11151;SDS011;5630;49.342;10.802;2024-02-21T03:02:18;15.00;;;4.23;;
11151;SDS011;5630;49.342;10.802;2024-02-21T03:04:43;14.70;;;4.20;;
11151;SDS011;5630;49.342;10.802;2024-02-21T03:07:09;13.73;;;4.77;;
11151;SDS011;5630;49.342;10.802;2024-02-21T03:09:39;16.30;;;4.30;;
11151;SDS011;5630;49.342;10.802;2024-02-21T03:12:08;14.17;;;4.50;;
11151;SDS011;5630;49.342;10.802;2024-02-21T03:14:34;15.53;;;4.43;;
11151;SDS011;5630;49.342;10.802;2024-02-21T03:17:00;15.90;;;4.43;;
11151;SDS011;5630;49.342;10.802;2024-02-21T03:19:26;15.63;;;4.30;;
11151;SDS011;5630;49.342;10.802;2024-02-21T03:21:52;11.20;;;4.13;;
11151;SDS011;5630;49.342;10.802;2024-02-21T03:24:21;16.53;;;4.40;;
11151;SDS011;5630;49.342;10.802;2024-02-21T03:26:47;15.57;;;4.70;;
11151;SDS011;5630;49.342;10.802;2024-02-21T03:29:14;13.73;;;4.37;;
11151;SDS011;5630;49.342;10.802;2024-02-21T03:31:40;14.67;;;4.40;;
11151;SDS011;5630;49.342;10.802;2024-02-21T03:34:07;17.50;;;4.37;;
11151;SDS011;5630;49.342;10.802;2024-02-21T03:36:33;12.73;;;5.10;;
11151;SDS011;5630;49.342;10.802;2024-02-21T03:38:58;10.13;;;4.17;;
11151;SDS011;5630;49.342;10.802;2024-02-21T03:41:24;16.93;;;4.63;;
11151;SDS011;5630;49.342;10.802;2024-02-21T03:43:49;14.57;;;4.33;;
11151;SDS011;5630;49.342;10.802;2024-02-21T03:46:15;13.90;;;4.50;;
11151;SDS011;5630;49.342;10.802;2024-02-21T03:48:41;11.83;;;3.93;;
11151;SDS011;5630;49.342;10.802;2024-02-21T03:51:06;15.20;;;4.20;;
11151;SDS011;5630;49.342;10.802;2024-02-21T03:53:32;14.80;;;4.27;;
11151;SDS011;5630;49.342;10.802;2024-02-21T03:56:00;13.50;;;4.50;;
11151;SDS011;5630;49.342;10.802;2024-02-21T03:58:28;15.83;;;4.57;;
11151;SDS011;5630;49.342;10.802;2024-02-21T04:00:53;13.63;;;4.13;;
11151;SDS011;5630;49.342;10.802;2024-02-21T04:03:19;12.10;;;3.77;;
11151;SDS011;5630;49.342;10.802;2024-02-21T04:05:44;11.87;;;4.17;;
11151;SDS011;5630;49.342;10.802;2024-02-21T04:08:10;15.20;;;4.43;;
11151;SDS011;5630;49.342;10.802;2024-02-21T04:10:36;8.70;;;3.53;;
11151;SDS011;5630;49.342;10.802;2024-02-21T04:13:02;14.63;;;4.60;;
11151;SDS011;5630;49.342;10.802;2024-02-21T04:15:28;14.13;;;4.57;;
11151;SDS011;5630;49.342;10.802;2024-02-21T04:17:54;17.00;;;4.50;;
11151;SDS011;5630;49.342;10.802;2024-02-21T04:20:19;13.50;;;4.30;;
11151;SDS011;5630;49.342;10.802;2024-02-21T04:22:45;13.13;;;4.07;;
11151;SDS011;5630;49.342;10.802;2024-02-21T04:25:11;9.67;;;4.27;;
11151;SDS011;5630;49.342;10.802;2024-02-21T04:27:38;9.87;;;4.37;;
11151;SDS011;5630;49.342;10.802;2024-02-21T04:30:04;13.20;;;4.77;;
11151;SDS011;5630;49.342;10.802;2024-02-21T04:32:30;9.33;;;4.73;;
11151;SDS011;5630;49.342;10.802;2024-02-21T04:34:55;14.27;;;4.87;;
11151;SDS011;5630;49.342;10.802;2024-02-21T04:37:21;11.27;;;4.57;;
11151;SDS011;5630;49.342;10.802;2024-02-21T04:39:48;9.17;;;4.17;;
11151;SDS011;5630;49.342;10.802;2024-02-21T04:42:14;12.63;;;4.77;;
11151;SDS011;5630;49.342;10.802;2024-02-21T04:44:40;13.50;;;4.47;;
11151;SDS011;5630;49.342;10.802;2024-02-21T04:47:06;18.60;;;4.83;;
11151;SDS011;5630;49.342;10.802;2024-02-21T04:49:32;11.63;;;4.20;;
11151;SDS011;5630;49.342;10.802;2024-02-21T04:51:58;14.53;;;4.17;;
11151;SDS011;5630;49.342;10.802;2024-02-21T04:54:24;15.90;;;4.83;;
11151;SDS011;5630;49.342;10.802;2024-02-21T04:56:50;13.93;;;4.40;;
11151;SDS011;5630;49.342;10.802;2024-02-21T04:59:16;18.77;;;4.87;;
11151;SDS011;5630;49.342;10.802;2024-02-21T05:01:42;12.70;;;5.03;;
11151;SDS011;5630;49.342;10.802;2024-02-21T05:04:07;12.50;;;4.40;;
11151;SDS011;5630;49.342;10.802;2024-02-21T05:06:37;13.37;;;4.27;;
11151;SDS011;5630;49.342;10.802;2024-02-21T05:09:06;10.37;;;4.57;;
11151;SDS011;5630;49.342;10.802;2024-02-21T05:11:33;13.37;;;4.67;;
11151;SDS011;5630;49.342;10.802;2024-02-21T05:13:59;13.67;;;3.93;;
11151;SDS011;5630;49.342;10.802;2024-02-21T05:16:25;10.27;;;4.37;;
11151;SDS011;5630;49.342;10.802;2024-02-21T05:18:50;13.57;;;4.77;;
11151;SDS011;5630;49.342;10.802;2024-02-21T05:21:16;10.50;;;3.97;;
11151;SDS011;5630;49.342;10.802;2024-02-21T05:23:41;9.83;;;3.60;;
11151;SDS011;5630;49.342;10.802;2024-02-21T05:26:07;13.87;;;4.33;;
11151;SDS011;5630;49.342;10.802;2024-02-21T05:28:33;15.73;;;4.70;;
11151;SDS011;5630;49.342;10.802;2024-02-21T05:30:58;12.90;;;4.50;;
11151;SDS011;5630;49.342;10.802;2024-02-21T05:33:24;10.93;;;4.50;;
11151;SDS011;5630;49.342;10.802;2024-02-21T05:35:50;14.10;;;4.30;;
11151;SDS011;5630;49.342;10.802;2024-02-21T05:38:19;13.17;;;4.97;;
11151;SDS011;5630;49.342;10.802;2024-02-21T05:40:47;12.20;;;4.63;;
11151;SDS011;5630;49.342;10.802;2024-02-21T05:43:15;47.67;;;26.23;;
11151;SDS011;5630;49.342;10.802;2024-02-21T05:45:53;18.47;;;5.23;;
11151;SDS011;5630;49.342;10.802;2024-02-21T05:48:19;14.47;;;4.70;;
11151;SDS011;5630;49.342;10.802;2024-02-21T05:50:45;14.57;;;4.57;;
11151;SDS011;5630;49.342;10.802;2024-02-21T05:53:11;12.90;;;4.80;;
11151;SDS011;5630;49.342;10.802;2024-02-21T05:55:37;12.63;;;4.47;;
11151;SDS011;5630;49.342;10.802;2024-02-21T05:58:03;12.53;;;4.80;;
11151;SDS011;5630;49.342;10.802;2024-02-21T06:00:30;15.30;;;4.80;;
11151;SDS011;5630;49.342;10.802;2024-02-21T06:02:56;17.80;;;5.40;;
11151;SDS011;5630;49.342;10.802;2024-02-21T06:05:22;10.67;;;4.70;;
11151;SDS011;5630;49.342;10.802;2024-02-21T06:07:47;14.50;;;5.33;;
11151;SDS011;5630;49.342;10.802;2024-02-21T06:10:13;13.60;;;5.13;;
11151;SDS011;5630;49.342;10.802;2024-02-21T06:12:39;10.27;;;4.50;;
11151;SDS011;5630;49.342;10.802;2024-02-21T06:15:05;12.37;;;4.67;;
11151;SDS011;5630;49.342;10.802;2024-02-21T06:17:31;14.50;;;5.13;;
11151;SDS011;5630;49.342;10.802;2024-02-21T06:19:56;13.57;;;5.10;;
11151;SDS011;5630;49.342;10.802;2024-02-21T06:22:22;14.20;;;4.97;;
11151;SDS011;5630;49.342;10.802;2024-02-21T06:24:48;18.10;;;5.47;;
11151;SDS011;5630;49.342;10.802;2024-02-21T06:27:13;10.67;;;4.27;;
11151;SDS011;5630;49.342;10.802;2024-02-21T06:29:41;13.63;;;4.50;;
11151;SDS011;5630;49.342;10.802;2024-02-21T06:32:07;14.57;;;4.97;;
11151;SDS011;5630;49.342;10.802;2024-02-21T06:34:32;13.10;;;4.70;;
11151;SDS011;5630;49.342;10.802;2024-02-21T06:36:58;7.63;;;3.60;;
11151;SDS011;5630;49.342;10.802;2024-02-21T06:39:23;10.67;;;3.70;;
11151;SDS011;5630;49.342;10.802;2024-02-21T06:41:49;8.03;;;3.50;;
11151;SDS011;5630;49.342;10.802;2024-02-21T06:44:16;14.97;;;3.90;;
11151;SDS011;5630;49.342;10.802;2024-02-21T06:46:42;11.30;;;3.93;;
11151;SDS011;5630;49.342;10.802;2024-02-21T06:49:07;13.23;;;4.27;;
11151;SDS011;5630;49.342;10.802;2024-02-21T06:51:33;14.63;;;3.87;;
11151;SDS011;5630;49.342;10.802;2024-02-21T06:53:59;10.93;;;4.23;;
11151;SDS011;5630;49.342;10.802;2024-02-21T06:56:25;10.97;;;4.40;;
11151;SDS011;5630;49.342;10.802;2024-02-21T06:58:53;11.70;;;4.20;;
11151;SDS011;5630;49.342;10.802;2024-02-21T07:01:21;13.10;;;4.17;;
11151;SDS011;5630;49.342;10.802;2024-02-21T07:03:47;12.43;;;4.47;;
11151;SDS011;5630;49.342;10.802;2024-02-21T07:06:13;10.90;;;4.20;;
11151;SDS011;5630;49.342;10.802;2024-02-21T07:08:38;12.50;;;4.83;;
11151;SDS011;5630;49.342;10.802;2024-02-21T07:11:04;10.47;;;4.23;;
11151;SDS011;5630;49.342;10.802;2024-02-21T07:13:30;12.47;;;4.27;;
11151;SDS011;5630;49.342;10.802;2024-02-21T07:15:55;10.13;;;4.30;;
11151;SDS011;5630;49.342;10.802;2024-02-21T07:18:21;10.90;;;3.90;;
11151;SDS011;5630;49.342;10.802;2024-02-21T07:20:46;10.73;;;3.87;;
11151;SDS011;5630;49.342;10.802;2024-02-21T07:23:12;13.33;;;4.80;;
11151;SDS011;5630;49.342;10.802;2024-02-21T07:25:38;8.10;;;3.93;;
11151;SDS011;5630;49.342;10.802;2024-02-21T07:28:04;12.13;;;3.97;;
11151;SDS011;5630;49.342;10.802;2024-02-21T07:30:30;10.40;;;4.20;;
11151;SDS011;5630;49.342;10.802;2024-02-21T07:32:56;12.77;;;4.07;;
11151;SDS011;5630;49.342;10.802;2024-02-21T07:35:21;13.57;;;4.50;;
11151;SDS011;5630;49.342;10.802;2024-02-21T07:37:47;15.80;;;4.97;;
11151;SDS011;5630;49.342;10.802;2024-02-21T07:40:13;11.17;;;4.23;;
11151;SDS011;5630;49.342;10.802;2024-02-21T07:42:39;15.87;;;4.90;;
11151;SDS011;5630;49.342;10.802;2024-02-21T07:45:05;13.83;;;5.07;;
11151;SDS011;5630;49.342;10.802;2024-02-21T07:47:32;15.97;;;4.97;;
11151;SDS011;5630;49.342;10.802;2024-02-21T07:49:57;8.17;;;3.80;;
11151;SDS011;5630;49.342;10.802;2024-02-21T07:52:23;10.27;;;4.13;;
11151;SDS011;5630;49.342;10.802;2024-02-21T07:54:49;14.80;;;4.40;;
11151;SDS011;5630;49.342;10.802;2024-02-21T07:57:15;14.37;;;4.30;;
11151;SDS011;5630;49.342;10.802;2024-02-21T07:59:41;10.47;;;4.23;;
11151;SDS011;5630;49.342;10.802;2024-02-21T08:02:07;15.03;;;4.40;;
11151;SDS011;5630;49.342;10.802;2024-02-21T08:04:32;10.17;;;3.63;;
11151;SDS011;5630;49.342;10.802;2024-02-21T08:06:58;8.57;;;3.80;;
11151;SDS011;5630;49.342;10.802;2024-02-21T08:09:26;10.40;;;4.00;;
11151;SDS011;5630;49.342;10.802;2024-02-21T08:11:52;11.50;;;4.17;;
11151;SDS011;5630;49.342;10.802;2024-02-21T08:14:19;12.57;;;3.70;;
11151;SDS011;5630;49.342;10.802;2024-02-21T08:16:44;12.57;;;4.23;;
11151;SDS011;5630;49.342;10.802;2024-02-21T08:19:10;12.40;;;3.80;;
11151;SDS011;5630;49.342;10.802;2024-02-21T08:21:36;10.53;;;3.43;;
11151;SDS011;5630;49.342;10.802;2024-02-21T08:24:02;9.43;;;3.60;;
11151;SDS011;5630;49.342;10.802;2024-02-21T08:26:27;10.33;;;3.57;;
11151;SDS011;5630;49.342;10.802;2024-02-21T08:28:55;14.77;;;4.00;;
11151;SDS011;5630;49.342;10.802;2024-02-21T08:31:24;9.33;;;4.40;;
11151;SDS011;5630;49.342;10.802;2024-02-21T08:33:55;13.43;;;4.07;;
11151;SDS011;5630;49.342;10.802;2024-02-21T08:36:31;12.27;;;3.93;;
11151;SDS011;5630;49.342;10.802;2024-02-21T08:38:57;22.07;;;10.20;;
11151;SDS011;5630;49.342;10.802;2024-02-21T08:41:24;17.57;;;4.47;;
11151;SDS011;5630;49.342;10.802;2024-02-21T08:43:50;13.90;;;4.33;;
11151;SDS011;5630;49.342;10.802;2024-02-21T08:46:16;11.20;;;3.37;;
11151;SDS011;5630;49.342;10.802;2024-02-21T08:48:42;11.63;;;3.53;;
11151;SDS011;5630;49.342;10.802;2024-02-21T08:51:08;8.00;;;3.13;;
11151;SDS011;5630;49.342;10.802;2024-02-21T08:53:34;10.80;;;4.00;;
11151;SDS011;5630;49.342;10.802;2024-02-21T08:55:59;11.57;;;3.63;;
11151;SDS011;5630;49.342;10.802;2024-02-21T08:58:25;13.17;;;3.67;;
11151;SDS011;5630;49.342;10.802;2024-02-21T09:00:51;11.47;;;3.27;;
11151;SDS011;5630;49.342;10.802;2024-02-21T09:03:17;9.83;;;3.27;;
11151;SDS011;5630;49.342;10.802;2024-02-21T09:05:45;10.93;;;3.57;;
11151;SDS011;5630;49.342;10.802;2024-02-21T09:08:11;12.10;;;3.57;;
11151;SDS011;5630;49.342;10.802;2024-02-21T09:10:36;10.10;;;3.23;;
11151;SDS011;5630;49.342;10.802;2024-02-21T09:13:02;10.37;;;3.70;;
11151;SDS011;5630;49.342;10.802;2024-02-21T09:15:28;12.57;;;3.60;;
11151;SDS011;5630;49.342;10.802;2024-02-21T09:17:54;8.63;;;3.30;;
11151;SDS011;5630;49.342;10.802;2024-02-21T09:20:19;10.30;;;3.73;;
11151;SDS011;5630;49.342;10.802;2024-02-21T09:22:45;10.57;;;3.20;;
11151;SDS011;5630;49.342;10.802;2024-02-21T09:25:10;9.17;;;3.20;;
11151;SDS011;5630;49.342;10.802;2024-02-21T09:27:37;8.43;;;3.37;;
11151;SDS011;5630;49.342;10.802;2024-02-21T09:30:03;13.67;;;3.70;;
11151;SDS011;5630;49.342;10.802;2024-02-21T09:32:30;8.37;;;3.57;;
11151;SDS011;5630;49.342;10.802;2024-02-21T09:34:57;13.87;;;3.40;;
11151;SDS011;5630;49.342;10.802;2024-02-21T09:37:22;8.93;;;3.03;;
11151;SDS011;5630;49.342;10.802;2024-02-21T09:39:48;12.80;;;3.73;;
11151;SDS011;5630;49.342;10.802;2024-02-21T09:42:15;11.80;;;3.57;;
11151;SDS011;5630;49.342;10.802;2024-02-21T09:44:45;9.70;;;3.30;;
11151;SDS011;5630;49.342;10.802;2024-02-21T09:47:19;7.20;;;3.17;;
11151;SDS011;5630;49.342;10.802;2024-02-21T09:49:49;9.63;;;3.60;;
11151;SDS011;5630;49.342;10.802;2024-02-21T09:52:16;12.47;;;3.93;;
11151;SDS011;5630;49.342;10.802;2024-02-21T09:54:44;10.80;;;3.57;;
11151;SDS011;5630;49.342;10.802;2024-02-21T09:57:10;9.83;;;3.50;;
11151;SDS011;5630;49.342;10.802;2024-02-21T09:59:36;14.60;;;3.60;;
11151;SDS011;5630;49.342;10.802;2024-02-21T10:02:02;10.23;;;3.30;;
11151;SDS011;5630;49.342;10.802;2024-02-21T10:04:29;8.37;;;3.40;;
11151;SDS011;5630;49.342;10.802;2024-02-21T10:06:55;12.60;;;3.30;;
11151;SDS011;5630;49.342;10.802;2024-02-21T10:09:22;9.60;;;3.30;;
11151;SDS011;5630;49.342;10.802;2024-02-21T10:11:48;12.73;;;3.63;;
11151;SDS011;5630;49.342;10.802;2024-02-21T10:14:15;8.03;;;3.37;;
11151;SDS011;5630;49.342;10.802;2024-02-21T10:16:41;11.03;;;3.50;;
11151;SDS011;5630;49.342;10.802;2024-02-21T10:19:19;9.83;;;3.23;;
11151;SDS011;5630;49.342;10.802;2024-02-21T10:22:04;9.97;;;3.27;;
11151;SDS011;5630;49.342;10.802;2024-02-21T10:24:32;8.13;;;2.90;;
11151;SDS011;5630;49.342;10.802;2024-02-21T10:27:02;8.20;;;2.83;;
11151;SDS011;5630;49.342;10.802;2024-02-21T10:29:29;11.47;;;3.17;;
11151;SDS011;5630;49.342;10.802;2024-02-21T10:32:07;7.77;;;2.53;;
11151;SDS011;5630;49.342;10.802;2024-02-21T10:34:37;10.90;;;2.83;;
11151;SDS011;5630;49.342;10.802;2024-02-21T10:37:04;4.63;;;2.33;;
11151;SDS011;5630;49.342;10.802;2024-02-21T10:39:31;12.00;;;3.03;;
11151;SDS011;5630;49.342;10.802;2024-02-21T10:41:59;8.90;;;2.50;;
11151;SDS011;5630;49.342;10.802;2024-02-21T10:44:29;7.40;;;2.50;;
11151;SDS011;5630;49.342;10.802;2024-02-21T10:46:55;7.90;;;2.73;;
11151;SDS011;5630;49.342;10.802;2024-02-21T10:49:27;10.23;;;2.73;;
11151;SDS011;5630;49.342;10.802;2024-02-21T10:52:06;9.00;;;3.17;;
11151;SDS011;5630;49.342;10.802;2024-02-21T10:54:45;8.27;;;2.80;;
11151;SDS011;5630;49.342;10.802;2024-02-21T10:57:17;7.30;;;2.40;;
11151;SDS011;5630;49.342;10.802;2024-02-21T10:59:44;13.47;;;3.30;;
11151;SDS011;5630;49.342;10.802;2024-02-21T11:02:10;10.60;;;2.97;;
11151;SDS011;5630;49.342;10.802;2024-02-21T11:04:35;7.93;;;2.70;;
11151;SDS011;5630;49.342;10.802;2024-02-21T11:07:03;11.57;;;2.77;;
11151;SDS011;5630;49.342;10.802;2024-02-21T11:09:30;11.10;;;3.03;;
11151;SDS011;5630;49.342;10.802;2024-02-21T11:11:57;9.50;;;2.80;;
11151;SDS011;5630;49.342;10.802;2024-02-21T11:14:26;7.03;;;2.30;;
11151;SDS011;5630;49.342;10.802;2024-02-21T11:16:52;7.23;;;2.50;;
11151;SDS011;5630;49.342;10.802;2024-02-21T11:19:19;10.27;;;2.53;;
11151;SDS011;5630;49.342;10.802;2024-02-21T11:21:49;5.67;;;2.23;;
11151;SDS011;5630;49.342;10.802;2024-02-21T11:24:31;8.67;;;2.23;;
11151;SDS011;5630;49.342;10.802;2024-02-21T11:27:14;7.90;;;2.40;;
11151;SDS011;5630;49.342;10.802;2024-02-21T11:32:10;7.00;;;2.20;;
11151;SDS011;5630;49.342;10.802;2024-02-21T11:34:36;8.80;;;2.43;;
11151;SDS011;5630;49.342;10.802;2024-02-21T11:37:04;10.53;;;2.20;;
11151;SDS011;5630;49.342;10.802;2024-02-21T11:39:41;10.33;;;2.40;;
11151;SDS011;5630;49.342;10.802;2024-02-21T11:42:07;12.03;;;2.73;;
11151;SDS011;5630;49.342;10.802;2024-02-21T11:44:34;7.43;;;2.13;;
11151;SDS011;5630;49.342;10.802;2024-02-21T11:47:02;6.27;;;2.17;;
11151;SDS011;5630;49.342;10.802;2024-02-21T11:49:29;7.83;;;2.70;;
11151;SDS011;5630;49.342;10.802;2024-02-21T11:51:58;9.87;;;3.20;;
11151;SDS011;5630;49.342;10.802;2024-02-21T11:54:25;10.07;;;2.73;;
11151;SDS011;5630;49.342;10.802;2024-02-21T11:56:51;6.87;;;2.53;;
11151;SDS011;5630;49.342;10.802;2024-02-21T11:59:17;7.33;;;2.33;;
11151;SDS011;5630;49.342;10.802;2024-02-21T12:01:43;5.13;;;1.97;;
11151;SDS011;5630;49.342;10.802;2024-02-21T12:04:08;6.53;;;2.33;;
11151;SDS011;5630;49.342;10.802;2024-02-21T12:06:35;6.77;;;2.27;;
11151;SDS011;5630;49.342;10.802;2024-02-21T12:09:00;7.00;;;2.30;;
11151;SDS011;5630;49.342;10.802;2024-02-21T12:11:26;7.37;;;2.13;;
11151;SDS011;5630;49.342;10.802;2024-02-21T12:13:58;5.30;;;2.23;;
11151;SDS011;5630;49.342;10.802;2024-02-21T12:16:26;10.50;;;2.43;;
11151;SDS011;5630;49.342;10.802;2024-02-21T12:18:54;7.27;;;2.20;;
11151;SDS011;5630;49.342;10.802;2024-02-21T12:21:23;6.40;;;1.97;;
11151;SDS011;5630;49.342;10.802;2024-02-21T12:23:49;3.60;;;2.00;;
11151;SDS011;5630;49.342;10.802;2024-02-21T12:26:15;4.70;;;1.93;;
11151;SDS011;5630;49.342;10.802;2024-02-21T12:28:40;5.23;;;2.17;;
11151;SDS011;5630;49.342;10.802;2024-02-21T12:31:06;9.10;;;2.00;;
11151;SDS011;5630;49.342;10.802;2024-02-21T12:33:31;7.63;;;1.97;;
11151;SDS011;5630;49.342;10.802;2024-02-21T12:35:58;6.40;;;2.20;;
11151;SDS011;5630;49.342;10.802;2024-02-21T12:38:23;4.17;;;1.90;;
11151;SDS011;5630;49.342;10.802;2024-02-21T12:40:49;4.27;;;2.00;;
11151;SDS011;5630;49.342;10.802;2024-02-21T12:43:15;6.67;;;1.90;;
11151;SDS011;5630;49.342;10.802;2024-02-21T12:45:40;5.13;;;1.70;;
11151;SDS011;5630;49.342;10.802;2024-02-21T12:48:06;6.13;;;1.87;;
11151;SDS011;5630;49.342;10.802;2024-02-21T12:50:31;3.23;;;1.50;;
11151;SDS011;5630;49.342;10.802;2024-02-21T12:52:57;6.07;;;2.10;;
11151;SDS011;5630;49.342;10.802;2024-02-21T12:55:23;4.63;;;1.77;;
11151;SDS011;5630;49.342;10.802;2024-02-21T12:57:49;6.33;;;2.40;;
11151;SDS011;5630;49.342;10.802;2024-02-21T13:00:14;7.20;;;2.20;;
11151;SDS011;5630;49.342;10.802;2024-02-21T13:02:40;4.03;;;2.00;;
11151;SDS011;5630;49.342;10.802;2024-02-21T13:05:06;6.07;;;2.10;;
11151;SDS011;5630;49.342;10.802;2024-02-21T13:07:32;6.53;;;2.00;;
11151;SDS011;5630;49.342;10.802;2024-02-21T13:09:58;5.23;;;2.10;;
11151;SDS011;5630;49.342;10.802;2024-02-21T13:12:24;5.53;;;2.10;;
11151;SDS011;5630;49.342;10.802;2024-02-21T13:14:51;6.80;;;2.40;;
11151;SDS011;5630;49.342;10.802;2024-02-21T13:17:16;7.10;;;2.43;;
11151;SDS011;5630;49.342;10.802;2024-02-21T13:19:42;6.60;;;2.27;;
11151;SDS011;5630;49.342;10.802;2024-02-21T13:22:08;6.87;;;2.27;;
11151;SDS011;5630;49.342;10.802;2024-02-21T13:24:34;6.20;;;2.20;;
11151;SDS011;5630;49.342;10.802;2024-02-21T13:26:59;5.20;;;1.93;;
11151;SDS011;5630;49.342;10.802;2024-02-21T13:29:25;2.73;;;1.80;;
11151;SDS011;5630;49.342;10.802;2024-02-21T13:31:50;7.87;;;2.50;;
11151;SDS011;5630;49.342;10.802;2024-02-21T13:34:16;5.90;;;1.87;;
11151;SDS011;5630;49.342;10.802;2024-02-21T13:36:42;5.80;;;2.03;;
11151;SDS011;5630;49.342;10.802;2024-02-21T13:39:08;4.70;;;2.13;;
11151;SDS011;5630;49.342;10.802;2024-02-21T13:41:37;5.80;;;2.37;;
11151;SDS011;5630;49.342;10.802;2024-02-21T13:44:03;4.67;;;2.00;;
11151;SDS011;5630;49.342;10.802;2024-02-21T13:46:29;5.27;;;2.10;;
11151;SDS011;5630;49.342;10.802;2024-02-21T13:49:01;3.60;;;1.63;;
11151;SDS011;5630;49.342;10.802;2024-02-21T13:51:32;5.03;;;2.00;;
11151;SDS011;5630;49.342;10.802;2024-02-21T13:54:01;4.70;;;1.90;;
11151;SDS011;5630;49.342;10.802;2024-02-21T13:56:28;6.27;;;1.90;;
11151;SDS011;5630;49.342;10.802;2024-02-21T13:58:54;4.23;;;1.80;;
11151;SDS011;5630;49.342;10.802;2024-02-21T14:01:20;5.17;;;2.03;;
11151;SDS011;5630;49.342;10.802;2024-02-21T14:03:45;7.33;;;2.20;;
11151;SDS011;5630;49.342;10.802;2024-02-21T14:06:11;7.57;;;2.37;;
11151;SDS011;5630;49.342;10.802;2024-02-21T14:08:37;3.00;;;1.87;;
11151;SDS011;5630;49.342;10.802;2024-02-21T14:11:04;6.20;;;2.07;;
11151;SDS011;5630;49.342;10.802;2024-02-21T14:13:31;6.67;;;2.20;;
11151;SDS011;5630;49.342;10.802;2024-02-21T14:15:56;5.07;;;1.73;;
11151;SDS011;5630;49.342;10.802;2024-02-21T14:18:22;4.47;;;1.80;;
11151;SDS011;5630;49.342;10.802;2024-02-21T14:20:48;5.97;;;2.20;;
11151;SDS011;5630;49.342;10.802;2024-02-21T14:23:13;6.67;;;1.77;;
11151;SDS011;5630;49.342;10.802;2024-02-21T14:25:39;4.23;;;1.97;;
11151;SDS011;5630;49.342;10.802;2024-02-21T14:28:07;5.27;;;1.97;;
11151;SDS011;5630;49.342;10.802;2024-02-21T14:30:35;6.50;;;1.87;;
11151;SDS011;5630;49.342;10.802;2024-02-21T14:33:01;4.13;;;2.30;;
11151;SDS011;5630;49.342;10.802;2024-02-21T14:35:26;6.80;;;2.27;;
11151;SDS011;5630;49.342;10.802;2024-02-21T14:37:52;5.90;;;2.10;;